Time;durP1;ratioP1;P1;durP2;ratioP2;P2;SDS_P1;SDS_P2;PMS_P1;PMS_P2;Temp;Humidity;BMP_temperature;BMP_pressure;BME280_temperature;BME280_humidity;BME280_pressure;Samples;Min_cycle;Max_cycle;Signal;HPM_P1;HPM_P2
2022/06/13 00:01:49;;;;;;;10.48;3.25;;;;;;;27.44;35.90;102141.34;5090054;28;20047;-71
2022/06/13 00:04:15;;;;;;;13.95;3.22;;;;;;;26.53;37.47;102144.81;5090620;28;20036;-72
2022/06/13 00:06:40;;;;;;;11.60;3.33;;;;;;;26.63;37.23;102138.94;5087782;28;20389;-72
2022/06/13 00:09:06;;;;;;;11.13;3.47;;;;;;;27.05;36.59;102137.38;5089927;28;20046;-71
2022/06/13 00:11:33;;;;;;;11.45;3.25;;;;;;;27.51;35.64;102123.91;5089140;28;20043;-71
2022/06/13 00:13:58;;;;;;;10.55;3.55;;;;;;;27.35;35.91;102123.06;5089854;28;20046;-72
2022/06/13 00:16:24;;;;;;;12.27;3.22;;;;;;;27.17;36.49;102122.38;5089935;28;20123;-69
2022/06/13 00:18:50;;;;;;;7.35;2.90;;;;;;;27.04;36.89;102115.06;5088590;28;20028;-69
2022/06/13 00:21:21;;;;;;;16.42;3.28;;;;;;;27.29;36.26;102118.09;5090803;28;20035;-70
2022/06/13 00:23:47;;;;;;;11.98;3.85;;;;;;;26.95;36.74;102114.75;5091167;28;20024;-69
2022/06/13 00:26:13;;;;;;;9.20;2.80;;;;;;;26.58;37.54;102118.63;5093712;28;20028;-69
2022/06/13 00:28:38;;;;;;;13.13;3.22;;;;;;;27.14;36.39;102110.00;5093725;28;20027;-69
2022/06/13 00:31:04;;;;;;;11.25;2.80;;;;;;;26.80;37.45;102122.72;5094531;28;20051;-69
2022/06/13 00:33:29;;;;;;;10.43;4.03;;;;;;;26.79;37.38;102113.00;5092878;28;20414;-71
2022/06/13 00:35:55;;;;;;;12.32;3.42;;;;;;;26.27;38.17;102110.56;5094652;28;20101;-72
2022/06/13 00:38:20;;;;;;;10.20;3.50;;;;;;;25.97;39.41;102111.34;5092361;28;20036;-71
2022/06/13 00:40:46;;;;;;;14.68;3.95;;;;;;;26.78;37.61;102111.25;5095201;28;20046;-71
2022/06/13 00:43:13;;;;;;;13.27;3.53;;;;;;;26.73;37.62;102118.69;5094831;28;20479;-72
2022/06/13 00:45:39;;;;;;;13.60;3.70;;;;;;;26.54;38.21;102122.44;5095881;28;20032;-71
2022/06/13 00:48:05;;;;;;;12.63;3.53;;;;;;;26.46;38.23;102123.78;5092420;28;20090;-72
2022/06/13 00:50:37;;;;;;;10.85;2.92;;;;;;;26.41;38.34;102121.41;5094416;28;20031;-71
2022/06/13 00:53:15;;;;;;;11.00;3.65;;;;;;;26.12;38.85;102121.22;5092690;28;20032;-72
2022/06/13 00:55:56;;;;;;;11.38;3.88;;;;;;;26.31;38.75;102114.81;5093418;28;20024;-71
2022/06/13 00:58:25;;;;;;;15.02;3.80;;;;;;;26.51;38.37;102111.84;5093176;28;20446;-71
2022/06/13 01:00:53;;;;;;;16.27;4.05;;;;;;;25.61;40.52;102117.72;5094541;28;20081;-71
2022/06/13 01:03:18;;;;;;;17.00;4.15;;;;;;;25.67;40.60;102104.88;5091264;28;20020;-71
2022/06/13 01:05:48;;;;;;;17.55;4.47;;;;;;;25.19;41.68;102109.16;5094252;28;20020;-72
2022/06/13 01:08:15;;;;;;;10.77;3.40;;;;;;;25.35;41.22;102103.94;5082887;28;20028;-72
2022/06/13 01:13:43;;;;;;;13.50;3.33;;;;;;;26.14;40.17;102097.88;5094102;28;20122;-71
2022/06/13 01:16:22;;;;;;;12.80;3.60;;;;;;;25.49;41.20;102109.41;5092369;28;20028;-72
2022/06/13 01:19:10;;;;;;;13.43;4.60;;;;;;;26.35;39.48;102105.66;5093987;28;20356;-71
2022/06/13 01:21:55;;;;;;;15.65;3.75;;;;;;;26.39;39.51;102116.13;5093601;28;20028;-72
2022/06/13 01:24:38;;;;;;;15.88;3.88;;;;;;;26.50;39.07;102110.16;5092646;28;20020;-71
2022/06/13 01:27:29;;;;;;;14.85;4.03;;;;;;;26.53;38.87;102099.25;5094741;28;20030;-71
2022/06/13 01:30:24;;;;;;;11.43;4.05;;;;;;;26.21;39.99;102112.69;5090409;28;20530;-71
2022/06/13 01:33:24;;;;;;;13.40;3.83;;;;;;;26.37;39.33;102111.78;5089915;28;20029;-72
2022/06/13 01:36:11;;;;;;;12.88;3.63;;;;;;;25.95;40.22;102110.53;5103605;28;20035;-72
2022/06/13 01:38:56;;;;;;;11.35;3.67;;;;;;;26.38;39.65;102105.50;5108639;28;20567;-71
2022/06/13 01:41:32;;;;;;;11.45;3.13;;;;;;;26.01;40.34;102103.03;5094663;28;20024;-72
2022/06/13 01:44:07;;;;;;;9.18;3.63;;;;;;;26.41;39.65;102102.63;5109433;28;20483;-71
2022/06/13 01:46:38;;;;;;;14.65;4.20;;;;;;;26.31;39.44;102109.44;5105917;27;20502;-71
2022/06/13 01:49:09;;;;;;;10.95;3.50;;;;;;;25.99;40.41;102109.41;5092055;28;20482;-71
2022/06/13 01:51:47;;;;;;;9.93;3.72;;;;;;;25.07;41.84;102110.66;5093627;28;20034;-72
2022/06/13 01:54:25;;;;;;;14.27;4.00;;;;;;;25.43;41.78;102112.41;5093199;28;20055;-72
2022/06/13 01:57:21;;;;;;;11.80;4.20;;;;;;;25.04;42.99;102108.16;5091880;28;20463;-72
2022/06/13 01:59:49;;;;;;;12.60;3.45;;;;;;;25.82;40.81;102113.03;5094336;28;20104;-71
2022/06/13 02:02:34;;;;;;;14.05;3.70;;;;;;;25.50;41.70;102107.56;5111586;27;20058;-71
2022/06/13 02:05:08;;;;;;;13.02;3.72;;;;;;;26.22;40.10;102106.34;5091333;28;20376;-72
2022/06/13 02:07:39;;;;;;;14.20;4.13;;;;;;;26.04;40.81;102108.25;5091791;28;20573;-71
2022/06/13 02:10:10;;;;;;;13.45;4.60;;;;;;;25.65;41.75;102119.28;5092842;28;20471;-72
2022/06/13 02:12:36;;;;;;;14.18;3.95;;;;;;;24.17;44.97;102120.38;5093272;28;20024;-71
2022/06/13 02:15:14;;;;;;;10.55;3.97;;;;;;;25.48;42.10;102115.69;5090384;27;20035;-72
2022/06/13 02:17:46;;;;;;;19.52;5.15;;;;;;;24.86;43.46;102110.81;5091274;28;20047;-72
2022/06/13 02:20:24;;;;;;;17.02;4.05;;;;;;;24.81;43.66;102115.53;5090047;28;20472;-71
2022/06/13 02:22:59;;;;;;;20.20;4.65;;;;;;;24.89;43.64;102117.81;5091824;28;20403;-71
2022/06/13 02:25:30;;;;;;;15.45;3.88;;;;;;;24.26;45.19;102120.88;5091670;28;20024;-71
2022/06/13 02:28:01;;;;;;;20.45;4.10;;;;;;;25.43;42.84;102111.53;5091400;28;20036;-71
2022/06/13 02:30:33;;;;;;;16.23;4.15;;;;;;;25.49;42.43;102114.75;5093717;28;20081;-71
2022/06/13 02:33:13;;;;;;;18.15;3.95;;;;;;;26.07;41.48;102113.41;5103684;27;20024;-72
2022/06/13 02:35:46;;;;;;;13.80;3.97;;;;;;;25.62;42.29;102114.09;5108064;28;20039;-72
2022/06/13 02:38:28;;;;;;;15.77;4.03;;;;;;;24.00;46.27;102120.28;5091034;28;20048;-71
2022/06/13 02:40:59;;;;;;;15.40;5.13;;;;;;;25.26;43.60;102115.94;5091719;28;20099;-72
2022/06/13 02:43:36;;;;;;;18.15;4.50;;;;;;;25.11;43.06;102112.22;5092569;28;20113;-71
2022/06/13 02:46:09;;;;;;;19.67;4.78;;;;;;;25.45;42.39;102113.19;5089218;27;20491;-71
2022/06/13 02:48:38;;;;;;;25.05;5.75;;;;;;;25.04;42.97;102116.16;5078251;28;20060;-72
2022/06/13 02:51:21;;;;;;;11.80;3.60;;;;;;;25.06;42.37;102119.66;5093142;28;20032;-72
2022/06/13 02:54:22;;;;;;;14.35;4.00;;;;;;;25.42;41.44;102115.16;5089688;28;20156;-71
2022/06/13 02:57:24;;;;;;;14.60;3.80;;;;;;;24.70;42.69;102120.53;5091194;28;20546;-71
2022/06/13 03:00:13;;;;;;;22.98;4.18;;;;;;;24.60;42.46;102121.91;5090868;28;20533;-72
2022/06/13 03:02:44;;;;;;;10.95;3.28;;;;;;;25.06;40.37;102119.66;5090918;28;20123;-71
2022/06/13 03:05:35;;;;;;;7.95;3.40;;;;;;;25.50;39.56;102124.53;5088841;28;20036;-72
2022/06/13 03:08:16;;;;;;;10.15;2.95;;;;;;;24.79;39.25;102124.56;5089429;28;20373;-71
2022/06/13 03:10:58;;;;;;;12.38;2.72;;;;;;;24.98;38.17;102129.88;5072859;28;20095;-72
2022/06/13 03:13:34;;;;;;;7.53;2.30;;;;;;;24.94;38.50;102126.47;5088413;28;20024;-72
2022/06/13 03:16:25;;;;;;;11.20;2.47;;;;;;;24.75;37.61;102128.34;5087799;28;20403;-73
2022/06/13 03:18:56;;;;;;;8.40;2.63;;;;;;;24.99;36.85;102139.59;5081966;28;20080;-72
2022/06/13 03:21:29;;;;;;;11.40;2.80;;;;;;;24.89;36.35;102137.41;5090355;28;20032;-72
2022/06/13 03:24:01;;;;;;;11.40;3.20;;;;;;;24.99;36.43;102145.84;5090516;28;20032;-72
2022/06/13 03:26:33;;;;;;;8.50;2.00;;;;;;;24.19;37.30;102150.56;5091356;28;20185;-72
2022/06/13 03:29:27;;;;;;;12.05;2.80;;;;;;;24.55;37.25;102147.06;5089631;28;20505;-71
2022/06/13 03:31:58;;;;;;;11.63;2.17;;;;;;;25.62;34.41;102132.84;5088156;28;20075;-72
2022/06/13 03:34:40;;;;;;;9.50;2.15;;;;;;;25.12;35.79;102145.22;5091707;28;20107;-72
2022/06/13 03:37:11;;;;;;;9.90;2.70;;;;;;;24.56;37.14;102147.91;5071415;28;20111;-71
2022/06/13 03:40:04;;;;;;;9.18;1.92;;;;;;;24.82;35.93;102152.00;5070837;28;20444;-73
2022/06/13 03:42:46;;;;;;;10.07;1.85;;;;;;;24.95;35.96;102143.38;5069353;28;20078;-72
2022/06/13 03:45:30;;;;;;;11.75;2.20;;;;;;;24.90;36.11;102151.63;5095428;27;20042;-73
2022/06/13 03:48:08;;;;;;;8.07;2.30;;;;;;;24.32;36.93;102149.97;5090884;28;20060;-73
2022/06/13 03:50:45;;;;;;;6.20;1.77;;;;;;;25.66;34.83;102155.81;5089220;28;20027;-73
2022/06/13 03:53:24;;;;;;;10.65;2.30;;;;;;;25.39;35.39;102159.03;5089678;28;20080;-73
2022/06/13 03:56:19;;;;;;;10.45;2.53;;;;;;;25.42;35.54;102161.53;5090741;28;20051;-72
2022/06/13 03:59:10;;;;;;;4.93;2.47;;;;;;;25.28;35.11;102156.88;5084419;28;21471;-73
2022/06/13 04:01:46;;;;;;;8.57;1.95;;;;;;;24.86;36.24;102172.31;5089273;28;20387;-72
2022/06/13 04:04:18;;;;;;;7.53;2.17;;;;;;;24.10;37.98;102171.44;5089155;28;20149;-72
2022/06/13 04:06:43;;;;;;;2.90;1.83;;;;;;;23.97;37.67;102176.50;5090560;28;20019;-72
2022/06/13 04:09:19;;;;;;;5.28;2.00;;;;;;;24.18;37.41;102180.88;5089704;28;20468;-72
2022/06/13 04:12:17;;;;;;;9.48;2.97;;;;;;;24.26;37.09;102176.97;5089883;28;20395;-73
2022/06/13 04:15:20;;;;;;;3.72;1.70;;;;;;;24.72;36.42;102170.31;5088796;28;20024;-72
2022/06/13 04:17:46;;;;;;;6.90;1.95;;;;;;;24.39;36.50;102183.47;5090859;28;20165;-72
2022/06/13 04:20:40;;;;;;;10.18;2.42;;;;;;;24.55;36.79;102173.78;5089004;28;20484;-72
2022/06/13 04:23:32;;;;;;;10.95;2.50;;;;;;;24.94;35.84;102173.75;5089433;28;20032;-71
2022/06/13 04:26:09;;;;;;;10.80;2.67;;;;;;;24.68;36.50;102181.25;5090163;28;20028;-72
2022/06/13 04:28:40;;;;;;;8.45;2.55;;;;;;;25.01;36.01;102177.84;5091804;28;20059;-72
2022/06/13 04:31:08;;;;;;;6.82;2.30;;;;;;;25.05;35.96;102184.78;5089793;28;20442;-73
2022/06/13 04:33:47;;;;;;;4.72;2.13;;;;;;;25.40;35.74;102171.44;5089643;28;20419;-72
2022/06/13 04:36:15;;;;;;;4.82;1.65;;;;;;;24.64;36.85;102182.34;5090556;28;20024;-72
2022/06/13 04:38:45;;;;;;;7.75;2.75;;;;;;;24.62;36.78;102192.22;5088743;28;20040;-71
2022/06/13 04:41:12;;;;;;;7.38;1.73;;;;;;;25.29;35.15;102179.13;5088840;28;20492;-71
2022/06/13 04:43:45;;;;;;;9.93;1.70;;;;;;;25.29;35.17;102176.44;5090145;28;20038;-72
2022/06/13 04:46:18;;;;;;;7.20;1.55;;;;;;;25.15;35.61;102183.34;5089763;28;20479;-71
2022/06/13 04:48:46;;;;;;;5.75;1.50;;;;;;;23.96;37.04;102185.44;5090212;28;20123;-72
2022/06/13 04:51:19;;;;;;;6.25;2.08;;;;;;;24.72;36.53;102185.50;5088910;28;20020;-72
2022/06/13 04:53:59;;;;;;;5.50;1.88;;;;;;;26.44;33.23;102174.81;5087673;28;20448;-73
2022/06/13 04:56:25;;;;;;;10.88;1.75;;;;;;;26.82;32.21;102174.47;5090185;28;20040;-71
2022/06/13 04:58:54;;;;;;;6.97;2.08;;;;;;;25.65;34.14;102183.53;5089964;28;20028;-72
2022/06/13 05:01:28;;;;;;;4.65;1.35;;;;;;;26.41;33.19;102177.69;5087996;28;20415;-72
2022/06/13 05:03:56;;;;;;;12.68;2.17;;;;;;;26.30;33.13;102185.47;5090186;28;20126;-72
2022/06/13 05:06:50;;;;;;;10.40;1.30;;;;;;;25.88;33.45;102193.03;5091641;28;20024;-72
2022/06/13 05:09:26;;;;;;;3.10;1.23;;;;;;;25.96;32.93;102189.94;5077067;28;20115;-71
2022/06/13 05:12:07;;;;;;;4.15;1.63;;;;;;;25.45;33.33;102201.50;5092882;28;20112;-72
2022/06/13 05:14:38;;;;;;;6.47;1.33;;;;;;;25.95;33.21;102190.88;5092783;28;20269;-72
2022/06/13 05:17:22;;;;;;;6.50;1.20;;;;;;;26.28;32.59;102190.03;5092332;28;20028;-72
2022/06/13 05:19:47;;;;;;;10.50;2.25;;;;;;;26.49;32.11;102204.91;5094173;28;20471;-72
2022/06/13 05:22:35;;;;;;;6.53;1.23;;;;;;;26.20;32.48;102218.13;5092170;28;20035;-72
2022/06/13 05:25:13;;;;;;;7.03;1.27;;;;;;;26.09;32.42;102212.47;5094264;28;20028;-73
2022/06/13 05:27:38;;;;;;;5.65;1.33;;;;;;;25.01;34.53;102226.00;5093388;28;20032;-72
2022/06/13 05:30:04;;;;;;;4.43;1.55;;;;;;;25.82;33.65;102225.50;5092272;28;20028;-72
2022/06/13 05:32:30;;;;;;;9.23;1.40;;;;;;;25.43;34.69;102224.81;5091187;28;20050;-72
2022/06/13 05:34:55;;;;;;;7.50;1.45;;;;;;;24.42;36.97;102246.59;5093578;28;20036;-72
2022/06/13 05:37:21;;;;;;;5.10;1.30;;;;;;;23.61;38.19;102238.56;5092439;28;20049;-72
2022/06/13 05:39:47;;;;;;;4.40;1.10;;;;;;;23.79;37.81;102243.09;5092622;28;20042;-72
2022/06/13 05:42:14;;;;;;;10.05;1.73;;;;;;;24.13;37.17;102244.31;5093385;28;20035;-71
2022/06/13 05:44:40;;;;;;;5.60;1.50;;;;;;;24.04;38.16;102242.03;5091585;28;20458;-72
2022/06/13 05:47:20;;;;;;;6.68;1.42;;;;;;;24.38;36.81;102245.84;5097058;28;20043;-71
2022/06/13 05:49:46;;;;;;;7.57;1.13;;;;;;;24.07;37.89;102252.59;5100892;28;20023;-71
2022/06/13 05:52:12;;;;;;;4.50;1.30;;;;;;;22.88;39.51;102253.03;5093207;28;20111;-72
2022/06/13 05:54:38;;;;;;;4.40;1.48;;;;;;;23.53;38.75;102247.78;5096243;28;20028;-72
2022/06/13 05:57:04;;;;;;;8.82;1.30;;;;;;;24.05;37.95;102249.13;5092039;28;20490;-72
2022/06/13 05:59:30;;;;;;;9.52;1.67;;;;;;;24.97;36.70;102256.50;5108052;28;20024;-72
2022/06/13 06:01:55;;;;;;;7.60;1.25;;;;;;;24.85;36.85;102271.31;5090890;28;20046;-71
2022/06/13 06:04:21;;;;;;;3.60;1.30;;;;;;;25.38;35.05;102264.31;5093342;28;20476;-72
2022/06/13 06:06:46;;;;;;;2.70;0.82;;;;;;;25.27;34.55;102266.63;5092973;28;20035;-72
2022/06/13 06:09:13;;;;;;;3.17;1.10;;;;;;;24.75;34.77;102278.06;5091109;28;20135;-71
2022/06/13 06:11:39;;;;;;;4.70;1.10;;;;;;;24.72;34.66;102281.72;5077444;28;20561;-73
2022/06/13 06:14:06;;;;;;;2.33;1.00;;;;;;;26.63;31.54;102275.66;5091542;28;20127;-72
2022/06/13 06:16:31;;;;;;;5.00;1.05;;;;;;;27.14;31.40;102271.00;5092600;28;20367;-72
2022/06/13 06:18:57;;;;;;;7.25;0.80;;;;;;;27.31;30.93;102278.06;5095549;28;20036;-73
2022/06/13 06:21:23;;;;;;;4.80;0.90;;;;;;;28.16;29.33;102281.09;5102189;28;20390;-73
2022/06/13 06:23:49;;;;;;;3.17;0.82;;;;;;;27.59;30.19;102288.06;5089129;28;20043;-72
2022/06/13 06:26:17;;;;;;;3.28;1.08;;;;;;;28.17;29.85;102287.34;5095834;28;20031;-72
2022/06/13 06:28:43;;;;;;;4.88;1.27;;;;;;;27.46;31.17;102287.06;5091973;28;20024;-73
2022/06/13 06:31:10;;;;;;;3.00;1.05;;;;;;;27.62;30.69;102291.56;5093321;28;20119;-71
2022/06/13 06:33:35;;;;;;;5.35;1.23;;;;;;;28.91;29.18;102291.63;5089052;28;20059;-72
2022/06/13 06:36:00;;;;;;;10.35;1.10;;;;;;;28.24;30.55;102283.31;5091609;28;20028;-73
2022/06/13 06:38:27;;;;;;;5.80;0.98;;;;;;;29.66;28.00;102286.72;5090957;28;20399;-73
2022/06/13 06:40:53;;;;;;;8.18;1.20;;;;;;;30.49;27.46;102278.25;5093969;28;20537;-72
2022/06/13 06:43:18;;;;;;;5.10;1.40;;;;;;;30.83;26.90;102281.19;5091072;28;20024;-73
2022/06/13 06:45:44;;;;;;;7.35;1.80;;;;;;;29.32;28.26;102289.00;5082521;28;20041;-73
2022/06/13 06:48:14;;;;;;;5.70;0.90;;;;;;;27.77;30.99;102301.38;5092792;28;20486;-72
2022/06/13 06:50:41;;;;;;;8.35;1.55;;;;;;;27.13;32.41;102298.78;5085711;28;20092;-73
2022/06/13 06:53:07;;;;;;;3.05;1.17;;;;;;;26.07;32.40;102305.44;5087933;28;20032;-73
2022/06/13 07:01:04;;;;;;;6.57;1.67;;;;;;;23.85;35.31;102317.59;5093703;28;20042;-73
2022/06/13 07:03:30;;;;;;;4.85;1.65;;;;;;;25.38;33.88;102317.84;5090760;28;20035;-73
2022/06/13 07:05:56;;;;;;;3.58;0.95;;;;;;;25.46;32.27;102318.31;5100084;28;20027;-72
2022/06/13 07:08:22;;;;;;;4.68;0.55;;;;;;;27.57;29.26;102319.53;5090597;28;20115;-72
2022/06/13 07:10:50;;;;;;;6.85;0.93;;;;;;;28.74;27.08;102316.06;5092630;28;20047;-72
2022/06/13 07:13:18;;;;;;;3.10;0.57;;;;;;;29.21;25.54;102317.50;5090244;28;20023;-72
2022/06/13 07:15:44;;;;;;;2.70;0.55;;;;;;;29.59;24.90;102314.09;5089564;28;20041;-73
2022/06/13 07:18:10;;;;;;;2.92;0.55;;;;;;;30.79;23.59;102317.47;5091518;28;20034;-73
2022/06/13 07:20:36;;;;;;;4.25;0.80;;;;;;;31.96;22.77;102308.66;5090178;28;20036;-72
2022/06/13 07:23:02;;;;;;;2.65;0.98;;;;;;;31.30;22.72;102321.84;5092152;28;20054;-71
2022/06/13 07:25:29;;;;;;;1.70;0.60;;;;;;;30.02;24.56;102328.28;5089840;28;20489;-71
2022/06/13 07:27:55;;;;;;;3.70;0.77;;;;;;;30.50;24.89;102319.56;5088924;28;20035;-72
2022/06/13 07:30:25;;;;;;;3.50;0.70;;;;;;;28.47;26.55;102322.22;5090436;28;20476;-72
2022/06/13 07:32:52;;;;;;;2.83;0.57;;;;;;;28.67;27.00;102325.47;5093184;28;20125;-72
2022/06/13 07:35:20;;;;;;;1.95;0.43;;;;;;;27.54;28.78;102333.13;5087350;28;20116;-73
2022/06/13 07:40:30;;;;;;;7.05;1.20;;;;;;;26.65;30.88;102338.09;5092049;28;20113;-73
2022/06/13 07:43:00;;;;;;;3.05;1.00;;;;;;;26.44;31.44;102340.16;5089969;28;20032;-73
2022/06/13 07:45:30;;;;;;;6.60;1.05;;;;;;;25.82;32.42;102357.56;5090656;28;20480;-72
2022/06/13 07:47:56;;;;;;;6.13;1.75;;;;;;;25.67;33.09;102359.19;5082374;28;20047;-73
2022/06/13 07:50:24;;;;;;;6.50;1.00;;;;;;;29.18;29.45;102357.19;5086176;28;20027;-73
2022/06/13 07:52:51;;;;;;;3.53;1.10;;;;;;;30.01;26.93;102348.16;5090791;28;20035;-73
2022/06/13 07:55:17;;;;;;;2.67;0.82;;;;;;;29.26;26.98;102368.34;5092649;28;20066;-73
2022/06/13 07:57:45;;;;;;;2.88;0.88;;;;;;;28.88;28.04;102353.72;5087831;28;20024;-73
2022/06/13 08:00:18;;;;;;;4.25;0.90;;;;;;;27.47;29.79;102369.34;5089337;28;20037;-73
2022/06/13 08:02:44;;;;;;;8.25;0.88;;;;;;;26.35;31.75;102376.31;5090020;28;20483;-73
2022/06/13 08:05:09;;;;;;;3.72;1.00;;;;;;;25.62;33.03;102379.97;5087510;28;20126;-74
2022/06/13 08:07:34;;;;;;;6.97;1.25;;;;;;;25.74;32.67;102383.88;5088504;28;20040;-73
2022/06/13 08:10:00;;;;;;;6.90;1.13;;;;;;;25.52;32.27;102384.91;5089157;28;20072;-73
2022/06/13 08:12:25;;;;;;;1.80;0.63;;;;;;;28.24;28.43;102380.94;5087842;28;20054;-72
2022/06/13 08:14:51;;;;;;;2.50;0.80;;;;;;;29.75;25.96;102380.38;5089895;28;20056;-71
2022/06/13 08:17:19;;;;;;;7.00;0.77;;;;;;;30.81;24.98;102374.03;5089978;28;20031;-72
2022/06/13 08:19:45;;;;;;;3.92;1.02;;;;;;;30.59;26.22;102383.66;5090836;28;20040;-73
2022/06/13 08:22:10;;;;;;;4.95;0.70;;;;;;;31.55;23.91;102388.38;5087905;28;20039;-72
2022/06/13 08:24:36;;;;;;;3.53;0.70;;;;;;;30.56;24.30;102386.56;5090193;28;20019;-72
2022/06/13 08:27:03;;;;;;;2.05;0.75;;;;;;;28.44;26.20;102393.16;5108076;28;20024;-72
2022/06/13 08:29:28;;;;;;;1.30;0.45;;;;;;;29.91;24.15;102397.28;5091277;28;20039;-71
2022/06/13 08:31:54;;;;;;;1.83;0.52;;;;;;;30.49;23.75;102390.66;5088347;28;20484;-72
2022/06/13 08:34:19;;;;;;;6.32;0.82;;;;;;;29.97;23.78;102395.13;5090063;28;20030;-71
2022/06/13 08:36:46;;;;;;;5.28;0.73;;;;;;;29.98;23.85;102395.03;5090378;28;20015;-72
2022/06/13 08:39:12;;;;;;;2.30;0.70;;;;;;;31.94;22.11;102391.75;5089288;28;20056;-72
2022/06/13 08:41:53;;;;;;;2.63;0.85;;;;;;;31.52;21.84;102395.81;5088503;28;20059;-72
2022/06/13 08:45:00;;;;;;;5.38;0.70;;;;;;;33.31;21.33;102393.53;5092971;28;20024;-70
2022/06/13 08:47:43;;;;;;;2.45;0.65;;;;;;;30.32;23.63;102419.63;5092888;28;20074;-71
2022/06/13 08:50:17;;;;;;;3.78;0.80;;;;;;;33.17;21.34;102396.53;5094791;28;20028;-72
2022/06/13 08:52:52;;;;;;;2.95;0.65;;;;;;;31.76;22.74;102412.06;5081048;28;20031;-71
2022/06/13 08:55:37;;;;;;;2.53;0.70;;;;;;;28.89;26.12;102419.13;5094632;28;20036;-72
2022/06/13 08:58:31;;;;;;;3.90;1.05;;;;;;;29.76;25.86;102420.69;5083521;28;20035;-71
2022/06/13 09:01:04;;;;;;;2.88;0.50;;;;;;;27.62;28.09;102420.44;5091261;28;20044;-70
2022/06/13 09:03:39;;;;;;;5.80;0.90;;;;;;;27.24;28.68;102422.50;5091642;28;20046;-72
2022/06/13 09:06:28;;;;;;;1.77;0.73;;;;;;;28.09;28.19;102432.94;5092526;28;20540;-72
2022/06/13 09:09:17;;;;;;;3.55;1.15;;;;;;;30.11;25.76;102430.09;5085712;28;20039;-71
2022/06/13 09:11:59;;;;;;;1.20;0.55;;;;;;;30.06;24.89;102443.88;5093038;28;20115;-71
2022/06/13 09:14:36;;;;;;;2.55;0.63;;;;;;;30.32;25.71;102440.34;5094062;28;20036;-72
2022/06/13 09:17:49;;;;;;;3.50;0.82;;;;;;;27.62;28.68;102441.94;5095417;28;20103;-72
2022/06/13 09:20:20;;;;;;;5.55;0.68;;;;;;;29.30;27.44;102439.03;5071041;28;20438;-72
2022/06/13 09:22:52;;;;;;;5.65;0.90;;;;;;;30.16;25.30;102436.03;5105268;27;20035;-71
2022/06/13 09:25:40;;;;;;;7.35;0.80;;;;;;;29.50;25.06;102441.28;5094660;28;20102;-69
2022/06/13 09:28:32;;;;;;;2.75;0.80;;;;;;;28.55;27.34;102448.09;5092918;28;20027;-72
2022/06/13 09:31:09;;;;;;;1.33;0.70;;;;;;;28.76;28.08;102440.59;5095665;28;20028;-71
2022/06/13 09:33:39;;;;;;;3.72;0.90;;;;;;;27.24;30.37;102452.03;5090216;28;20288;-72
2022/06/13 09:36:13;;;;;;;3.75;0.82;;;;;;;26.07;31.51;102456.31;5092603;28;20140;-71
2022/06/13 09:38:44;;;;;;;5.72;1.08;;;;;;;24.61;34.13;102460.44;5092956;28;20408;-71
2022/06/13 09:41:40;;;;;;;7.53;1.40;;;;;;;27.12;30.58;102460.75;5094228;28;20028;-71
2022/06/13 09:44:31;;;;;;;3.00;0.85;;;;;;;27.95;29.22;102459.75;5087845;28;20046;-71
2022/06/13 09:46:59;;;;;;;10.13;1.85;;;;;;;30.93;26.78;102444.16;5091052;28;20096;-73
2022/06/13 09:49:38;;;;;;;3.88;0.77;;;;;;;30.58;25.60;102461.03;5092083;28;20028;-74
2022/06/13 09:52:13;;;;;;;2.92;1.00;;;;;;;30.20;25.32;102455.53;5091199;28;20119;-73
2022/06/13 09:54:55;;;;;;;3.95;0.93;;;;;;;28.93;27.44;102452.97;5089865;28;20036;-72
2022/06/13 09:57:45;;;;;;;4.20;1.00;;;;;;;29.85;25.84;102464.19;5072673;28;20027;-73
2022/06/13 10:00:25;;;;;;;5.32;1.27;;;;;;;30.02;24.69;102468.44;5101984;27;20373;-72
2022/06/13 10:03:01;;;;;;;6.07;1.25;;;;;;;30.31;23.74;102462.91;5107867;27;20673;-72
2022/06/13 10:05:45;;;;;;;6.10;0.77;;;;;;;31.95;21.52;102462.88;5089147;28;20059;-74
2022/06/13 10:08:13;;;;;;;5.03;0.82;;;;;;;31.46;23.66;102452.06;5084935;28;20693;-72
2022/06/13 10:10:48;;;;;;;2.70;0.85;;;;;;;30.95;24.58;102468.34;5096406;27;20034;-73
2022/06/13 10:13:48;;;;;;;3.60;1.27;;;;;;;27.56;27.48;102476.22;5090988;28;20498;-72
2022/06/13 10:16:52;;;;;;;3.85;1.08;;;;;;;27.07;27.94;102485.13;5091711;28;20035;-73
2022/06/13 10:19:40;;;;;;;2.40;0.70;;;;;;;29.87;24.79;102476.59;5029027;28;20031;-73
2022/06/13 10:22:15;;;;;;;3.70;0.65;;;;;;;28.78;25.77;102470.94;5035964;28;20063;-73
2022/06/13 10:24:56;;;;;;;2.55;0.60;;;;;;;31.06;24.03;102473.00;5071255;28;20040;-73
2022/06/13 10:27:30;;;;;;;5.28;1.10;;;;;;;28.68;25.25;102483.22;5117854;27;20045;-73
2022/06/13 10:30:17;;;;;;;2.53;0.70;;;;;;;29.55;24.48;102471.50;5093256;28;20050;-73
2022/06/13 10:33:00;;;;;;;2.50;0.80;;;;;;;30.31;24.79;102479.06;5090089;28;20337;-72
2022/06/13 10:35:45;;;;;;;;;;;;;;;31.46;23.41;102475.50;5092363;28;20441;-72
2022/06/13 10:38:23;;;;;;;4.05;0.80;;;;;;;29.66;24.90;102486.06;5091109;28;20010;-72
2022/06/13 10:40:48;;;;;;;3.33;0.68;;;;;;;29.51;24.25;102491.50;5090602;28;20119;-72
2022/06/13 10:43:15;;;;;;;2.90;0.80;;;;;;;27.96;26.26;102493.69;5090926;28;20462;-72
2022/06/13 10:45:41;;;;;;;3.50;0.70;;;;;;;28.99;25.23;102494.75;5086530;28;20039;-72
2022/06/13 10:48:19;;;;;;;3.50;0.80;;;;;;;29.64;24.28;102485.31;5111023;27;20110;-72
2022/06/13 10:50:51;;;;;;;3.42;0.52;;;;;;;30.71;22.92;102489.84;5091810;28;20388;-71
2022/06/13 10:53:35;;;;;;;7.32;0.90;;;;;;;27.13;25.41;102499.19;5090093;28;20055;-72
2022/06/13 10:56:03;;;;;;;3.45;0.65;;;;;;;29.14;23.96;102499.22;5071959;28;20122;-72
2022/06/13 10:58:37;;;;;;;2.38;0.60;;;;;;;29.20;24.49;102493.41;5108209;27;20023;-72
2022/06/13 11:01:12;;;;;;;3.67;0.70;;;;;;;27.42;25.19;102497.59;5091243;28;20077;-72
2022/06/13 11:03:57;;;;;;;1.42;0.60;;;;;;;29.82;24.63;102494.00;5090085;28;20027;-72
2022/06/13 11:06:25;;;;;;;4.72;0.85;;;;;;;31.92;21.92;102485.59;5100562;27;20046;-72
2022/06/13 11:09:21;;;;;;;4.53;0.80;;;;;;;28.47;24.23;102498.78;5092065;28;20035;-72
2022/06/13 11:11:47;;;;;;;3.25;0.73;;;;;;;28.57;24.11;102508.91;5082821;28;20075;-72
2022/06/13 11:14:33;;;;;;;6.63;1.05;;;;;;;29.69;23.97;102497.53;5088951;28;20468;-73
2022/06/13 11:22:38;;;;;;;6.15;1.00;;;;;;;28.16;25.25;102514.91;5089762;28;20039;-72
2022/06/13 11:25:11;;;;;;;6.85;1.20;;;;;;;28.24;25.70;102509.09;5091017;28;20102;-72
2022/06/13 11:27:41;;;;;;;8.35;1.00;;;;;;;28.42;25.71;102515.22;5092284;28;20023;-72
2022/06/13 11:30:27;;;;;;;2.47;0.77;;;;;;;27.79;25.76;102518.84;5089665;28;20500;-71
2022/06/13 11:32:57;;;;;;;3.15;1.08;;;;;;;29.75;24.65;102509.72;5113553;27;20433;-72
2022/06/13 11:35:35;;;;;;;3.75;1.15;;;;;;;31.58;22.50;102509.72;5088795;28;20521;-73
2022/06/13 11:38:31;;;;;;;3.42;0.98;;;;;;;29.54;23.63;102523.63;5088885;28;20047;-73
2022/06/13 11:41:15;;;;;;;3.20;0.77;;;;;;;29.04;23.72;102523.13;5108211;27;20126;-73
2022/06/13 11:43:46;;;;;;;2.75;0.80;;;;;;;29.41;23.84;102523.53;5099931;28;20028;-72
2022/06/13 11:46:37;;;;;;;5.50;1.08;;;;;;;28.23;24.82;102527.06;5090058;28;20036;-73
2022/06/13 11:49:05;;;;;;;1.92;0.93;;;;;;;29.21;23.99;102526.59;5089360;28;20046;-73
2022/06/13 11:51:40;;;;;;;3.70;0.80;;;;;;;28.29;24.32;102531.22;5090587;28;20032;-71
2022/06/13 11:54:26;;;;;;;3.28;0.80;;;;;;;29.18;23.70;102526.78;5103143;27;20024;-72
2022/06/13 11:57:17;;;;;;;4.85;0.70;;;;;;;29.09;24.23;102520.16;5076949;28;20047;-73
2022/06/13 11:59:54;;;;;;;3.67;1.00;;;;;;;31.99;21.84;102517.59;5084634;28;20028;-73
2022/06/13 12:02:26;;;;;;;3.65;0.93;;;;;;;28.07;24.41;102528.91;5037339;28;20235;-73
2022/06/13 12:04:53;;;;;;;;;;;;;;;28.45;24.96;102525.78;5095858;28;20395;-73
2022/06/13 12:07:22;;;;;;;3.88;1.00;;;;;;;26.92;25.92;102529.75;5084188;28;20299;-72
2022/06/13 12:09:52;;;;;;;6.18;1.00;;;;;;;27.23;25.11;102522.75;5090582;28;20027;-72
2022/06/13 12:12:18;;;;;;;4.95;0.75;;;;;;;27.50;24.93;102530.25;5090467;28;20066;-72
2022/06/13 12:14:43;;;;;;;3.28;0.80;;;;;;;26.82;25.11;102533.00;5090456;28;20066;-73